EGPO Airport Information

Runway Information
Runway 07 Length 3281 ft width 75 ft
Elevation 26 ft Threshold 0 ft Heading 60
Runway 25 Length 3281 ft Width 75 ft
Elevation 21 ft Threshold 0 ft Heading 240
Runway 18 Length 7218 ft width 151 ft
Elevation 16 ft Threshold 394 ft Heading 174
Runway 36 Length 7218 ft Width 151 ft
Elevation 15 ft Threshold 0 ft Heading 354
Airport Frequencies
Type AFIS Name AFIS Frequency 123.5 MHZ
Type APP Name APP Frequency 123.5 MHZ
Type ATIS Name ATIS Frequency 115.1 MHZ
Type TWR Name TWR Frequency 123.5 MHZ
Airport Navaids
Type NDB-DME Name Stornoway Frequency 431 KHZ
Type VOR-DME Name Stornoway Frequency 115100 KHZ
Airport Weather Information & NOTAM
ADDS - METARS form results

(0226 UTC 07 July 2020)
Data provider http://aviationweather.gov/metar/data/
 
METAR text: EGPO 070220Z AUTO 27006KT 9999 FEW036/// 10/08 Q1015
Conditions at: EGPO (STORNOWAY , GB) observed 0220 UTC 07 July 2020
Temperature: 10.0°C (50°F)
Dewpoint: 8.0°C (46°F) [RH = 87%]
Pressure (altimeter): 29.97 inches Hg (1015.0 mb)
Winds: from the W (270 degrees) at 7 MPH (6 knots; 3.1 m/s)
Visibility: 6 or more miles (10+ km)
Ceiling: at least 12,000 feet AGL
Clouds: few clouds at 3600 feet AGL
Weather: no significant weather observed at this time

METAR text: EGPO 070150Z AUTO 27008KT 9999 FEW031/// 10/08 Q1015
Conditions at: EGPO (STORNOWAY , GB) observed 0150 UTC 07 July 2020
Temperature: 10.0°C (50°F)
Dewpoint: 8.0°C (46°F) [RH = 87%]
Pressure (altimeter): 29.97 inches Hg (1015.0 mb)
Winds: from the W (270 degrees) at 9 MPH (8 knots; 4.1 m/s)
Visibility: 6 or more miles (10+ km)
Ceiling: at least 12,000 feet AGL
Clouds: few clouds at 3100 feet AGL
Weather: no significant weather observed at this time

Forecast for: EGPO (STORNOWAY , GB)
Text: TAF EGPO 070154Z 0703/0712 32009KT 9999 FEW030
Forecast period: 0300 to 1200 UTC 07 July 2020
Forecast type: FROM: standard forecast or significant change
Winds: from the NW (320 degrees) at 10 MPH (9 knots; 4.6 m/s)
Visibility: 6 or more miles 10+ km)
Ceiling: at least 12,000 feet AGL
Clouds: few clouds at 3000 feet AGL
Weather: no significant weather forecast for this period
Text: PROB40
Forecast period: 0300 to 0400 UTC 07 July 2020
Forecast type: TEMPORARY: The following changes expected for less than half the time period
Visibility: 4 miles (6 km)
Ceiling: unknown
Clouds: missing
Weather: SHRA  (rain showers)
Text: TEMPO 0703/0704 6000 SHRA
Forecast period: 0900 to 1200 UTC 07 July 2020
Forecast type: TEMPORARY: The following changes expected for less than half the time period
Winds: from the NE (50 degrees) at 12 MPH (10 knots; 5.1 m/s)
Visibility: missing
Ceiling: unknown
Clouds: missing
Weather: no significant weather forecast for this period